Time;durP1;ratioP1;P1;durP2;ratioP2;P2;SDS_P1;SDS_P2;PMS_P1;PMS_P2;Temp;Humidity;BMP_temperature;BMP_pressure;BME280_temperature;BME280_humidity;BME280_pressure;Samples;Min_cycle;Max_cycle;Signal;HPM_P1;HPM_P2
2022/12/26 00:01:43;;;;;;;9.17;7.10;;;;;;;;;;6176960;23;20375;-75
2022/12/26 00:04:09;;;;;;;8.90;8.10;;;;;;;;;;6173150;23;20509;-75
2022/12/26 00:06:36;;;;;;;8.03;7.33;;;;;;;;;;6176825;23;20872;-76
2022/12/26 00:09:03;;;;;;;9.03;8.13;;;;;;;;;;6173464;23;20372;-75
2022/12/26 00:11:29;;;;;;;10.37;8.97;;;;;;;;;;6176476;23;20450;-76
2022/12/26 00:13:56;;;;;;;15.20;9.30;;;;;;;;;;6173566;23;20700;-76
2022/12/26 00:16:23;;;;;;;12.07;9.93;;;;;;;;;;6177167;23;20726;-74
2022/12/26 00:18:49;;;;;;;11.43;9.97;;;;;;;;;;6168503;23;20375;-74
2022/12/26 00:21:15;;;;;;;11.20;9.80;;;;;;;;;;6177088;23;20407;-75
2022/12/26 00:23:42;;;;;;;14.70;10.17;;;;;;;;;;6172623;23;20517;-75
2022/12/26 00:26:12;;;;;;;12.13;10.60;;;;;;;;;;6176694;23;20851;-77
2022/12/26 00:28:38;;;;;;;12.20;9.83;;;;;;;;;;6172950;23;20462;-77
2022/12/26 00:31:09;;;;;;;11.73;9.50;;;;;;;;;;6176967;23;20371;-76
2022/12/26 00:33:35;;;;;;;13.23;10.17;;;;;;;;;;6173179;23;20383;-76
2022/12/26 00:36:02;;;;;;;12.03;10.83;;;;;;;;;;6176587;23;20375;-76
2022/12/26 00:38:29;;;;;;;12.97;9.90;;;;;;;;;;6172103;23;20385;-76
2022/12/26 00:40:55;;;;;;;14.07;11.77;;;;;;;;;;6150120;23;20384;-76
2022/12/26 00:43:20;;;;;;;10.77;9.80;;;;;;;;;;6172946;23;20459;-76
2022/12/26 00:45:50;;;;;;;10.37;9.20;;;;;;;;;;6176407;23;20384;-76
2022/12/26 00:48:16;;;;;;;9.67;8.77;;;;;;;;;;6172690;23;20422;-75
2022/12/26 00:50:42;;;;;;;10.80;8.73;;;;;;;;;;6176745;23;20411;-75
2022/12/26 00:53:08;;;;;;;7.73;6.93;;;;;;;;;;6172617;23;20410;-75
2022/12/26 00:55:34;;;;;;;6.67;6.20;;;;;;;;;;6176616;23;20429;-76
2022/12/26 00:58:00;;;;;;;7.20;6.53;;;;;;;;;;6173055;23;20397;-76
2022/12/26 01:00:26;;;;;;;8.10;7.30;;;;;;;;;;6176623;23;20368;-76
2022/12/26 01:02:51;;;;;;;6.30;5.80;;;;;;;;;;6176754;23;20705;-75
2022/12/26 01:05:17;;;;;;;5.77;5.43;;;;;;;;;;6146681;23;20422;-75
2022/12/26 01:07:46;;;;;;;5.53;5.27;;;;;;;;;;6176695;23;20507;-76
2022/12/26 01:10:12;;;;;;;6.23;5.50;;;;;;;;;;6173218;23;20856;-75
2022/12/26 01:12:38;;;;;;;7.80;7.20;;;;;;;;;;6177006;23;20423;-76
2022/12/26 01:15:05;;;;;;;5.87;5.47;;;;;;;;;;6174409;23;21001;-76
2022/12/26 01:17:31;;;;;;;6.70;6.20;;;;;;;;;;6178237;23;20382;-76
2022/12/26 01:19:57;;;;;;;8.07;5.60;;;;;;;;;;6145301;23;20402;-76
2022/12/26 01:22:24;;;;;;;4.90;4.60;;;;;;;;;;6176701;23;20578;-76
2022/12/26 01:24:53;;;;;;;4.80;4.47;;;;;;;;;;6172762;23;20871;-75
2022/12/26 01:27:19;;;;;;;4.77;4.40;;;;;;;;;;6176262;23;20383;-76
2022/12/26 01:29:45;;;;;;;4.50;4.27;;;;;;;;;;6172720;23;20372;-75
2022/12/26 01:32:11;;;;;;;3.97;3.77;;;;;;;;;;6176451;23;20692;-76
2022/12/26 01:34:37;;;;;;;4.53;4.33;;;;;;;;;;6172070;23;20376;-76
2022/12/26 01:37:03;;;;;;;4.47;4.37;;;;;;;;;;6176414;23;20778;-76
2022/12/26 01:39:29;;;;;;;4.30;3.90;;;;;;;;;;6172404;23;20385;-75
2022/12/26 01:41:55;;;;;;;4.37;4.17;;;;;;;;;;6176453;23;20867;-78
2022/12/26 01:44:40;;;;;;;4.83;4.43;;;;;;;;;;6145852;23;20561;-75
2022/12/26 01:47:06;;;;;;;4.77;4.47;;;;;;;;;;6176667;23;20347;-76
2022/12/26 01:49:39;;;;;;;5.00;4.70;;;;;;;;;;6172644;23;20702;-76
2022/12/26 01:52:07;;;;;;;4.23;4.03;;;;;;;;;;6177113;23;20843;-75
2022/12/26 01:54:35;;;;;;;3.60;3.40;;;;;;;;;;6146810;23;20709;-76
2022/12/26 01:57:03;;;;;;;2.90;2.80;;;;;;;;;;6176319;23;20375;-76
2022/12/26 01:59:30;;;;;;;2.50;2.40;;;;;;;;;;6145950;23;20449;-77
2022/12/26 02:01:58;;;;;;;2.93;2.90;;;;;;;;;;6176334;23;20383;-77
2022/12/26 02:07:13;;;;;;;2.90;2.30;;;;;;;;;;6176742;23;20471;-77
2022/12/26 02:09:39;;;;;;;2.30;2.20;;;;;;;;;;6175819;23;20372;-76
2022/12/26 02:12:20;;;;;;;2.40;2.40;;;;;;;;;;6192306;23;20473;-77
2022/12/26 02:14:47;;;;;;;2.20;2.20;;;;;;;;;;6162237;23;20466;-77
2022/12/26 02:17:13;;;;;;;2.60;2.60;;;;;;;;;;6180041;23;20446;-76
2022/12/26 02:19:58;;;;;;;2.20;2.20;;;;;;;;;;6171569;23;20880;-76
2022/12/26 02:22:24;;;;;;;2.40;2.40;;;;;;;;;;6151431;23;20390;-76
2022/12/26 02:24:53;;;;;;;2.70;2.60;;;;;;;;;;6147036;23;20774;-75
2022/12/26 02:27:26;;;;;;;2.93;2.83;;;;;;;;;;6177572;23;20368;-76
2022/12/26 02:30:12;;;;;;;2.97;2.77;;;;;;;;;;6173745;23;20388;-76
2022/12/26 02:32:47;;;;;;;3.00;2.90;;;;;;;;;;6177556;23;20392;-76
2022/12/26 02:35:32;;;;;;;2.60;2.60;;;;;;;;;;6173020;23;20379;-75
2022/12/26 02:38:15;;;;;;;3.20;3.10;;;;;;;;;;6177849;23;20375;-76
2022/12/26 02:40:47;;;;;;;3.97;3.77;;;;;;;;;;6178530;23;20351;-76
2022/12/26 02:43:28;;;;;;;3.60;3.50;;;;;;;;;;6174505;23;20425;-76
2022/12/26 02:48:45;;;;;;;4.97;4.33;;;;;;;;;;6174208;23;20386;-77
2022/12/26 03:14:24;;;;;;;6.67;6.13;;;;;;;;;;6175310;23;20465;-76
2022/12/26 03:19:57;;;;;;;6.00;5.60;;;;;;;;;;6167903;23;20445;-77
2022/12/26 03:22:29;;;;;;;5.67;5.37;;;;;;;;;;6177752;23;20393;-76
2022/12/26 03:27:41;;;;;;;5.93;5.43;;;;;;;;;;6177191;23;20359;-77
2022/12/26 03:32:54;;;;;;;5.90;5.40;;;;;;;;;;6177114;23;20410;-76
2022/12/26 03:35:20;;;;;;;6.33;5.83;;;;;;;;;;6173753;23;20371;-75
2022/12/26 03:37:52;;;;;;;6.27;5.03;;;;;;;;;;6176603;23;20840;-75
2022/12/26 04:20:33;;;;;;;4.80;4.60;;;;;;;;;;6174773;23;20836;-76
2022/12/26 04:45:36;;;;;;;5.30;5.10;;;;;;;;;;6177134;23;21042;-76
2022/12/26 04:50:51;;;;;;;5.20;4.90;;;;;;;;;;6177541;23;20418;-76
2022/12/26 04:53:17;;;;;;;4.70;4.50;;;;;;;;;;6173122;23;20387;-76
2022/12/26 04:55:43;;;;;;;5.13;4.80;;;;;;;;;;6177369;23;20336;-76
2022/12/26 04:58:09;;;;;;;4.50;4.30;;;;;;;;;;6173229;23;20471;-76
2022/12/26 05:00:35;;;;;;;4.63;4.43;;;;;;;;;;6176731;23;20360;-75
2022/12/26 05:11:12;;;;;;;4.13;4.00;;;;;;;;;;6177104;23;20469;-76
2022/12/26 05:13:38;;;;;;;3.77;3.70;;;;;;;;;;6172037;23;20427;-76
2022/12/26 05:29:48;;;;;;;3.97;3.57;;;;;;;;;;6172772;23;20698;-77
2022/12/26 05:34:58;;;;;;;3.37;3.27;;;;;;;;;;6172560;23;20989;-76
2022/12/26 05:37:24;;;;;;;3.30;3.20;;;;;;;;;;6176111;23;20399;-75
2022/12/26 05:39:50;;;;;;;3.80;3.60;;;;;;;;;;6171634;23;20558;-75
2022/12/26 05:42:16;;;;;;;3.53;3.40;;;;;;;;;;6175817;23;20360;-75
2022/12/26 05:44:43;;;;;;;3.37;3.37;;;;;;;;;;6172185;23;20411;-75
2022/12/26 05:47:09;;;;;;;4.30;4.00;;;;;;;;;;6176162;23;20459;-75
2022/12/26 05:49:35;;;;;;;4.00;3.80;;;;;;;;;;6175921;23;20943;-75
2022/12/26 05:52:01;;;;;;;3.77;3.60;;;;;;;;;;6172709;23;20450;-74
2022/12/26 05:54:27;;;;;;;3.60;3.43;;;;;;;;;;6176061;23;20391;-76
2022/12/26 05:56:54;;;;;;;4.30;4.00;;;;;;;;;;6179333;23;20382;-74
2022/12/26 05:59:19;;;;;;;4.40;4.20;;;;;;;;;;6186775;23;20398;-74
2022/12/26 06:02:03;;;;;;;4.90;4.70;;;;;;;;;;6182877;23;20382;-76
2022/12/26 06:04:35;;;;;;;4.53;4.37;;;;;;;;;;6154776;23;20427;-76
2022/12/26 06:07:01;;;;;;;3.90;3.80;;;;;;;;;;6143883;23;20405;-76
2022/12/26 06:09:27;;;;;;;4.00;3.70;;;;;;;;;;6177257;23;20407;-76
2022/12/26 06:11:56;;;;;;;4.10;3.90;;;;;;;;;;6172837;23;20573;-75
2022/12/26 06:14:22;;;;;;;4.47;4.13;;;;;;;;;;6178655;23;20367;-75
2022/12/26 06:16:48;;;;;;;5.93;4.73;;;;;;;;;;6175486;23;20375;-76
2022/12/26 06:19:14;;;;;;;5.13;4.67;;;;;;;;;;6173780;23;20685;-75
2022/12/26 06:21:40;;;;;;;4.40;4.20;;;;;;;;;;6174398;23;20848;-75
2022/12/26 06:24:06;;;;;;;5.20;4.90;;;;;;;;;;6178809;23;20441;-76
2022/12/26 06:26:32;;;;;;;5.00;4.70;;;;;;;;;;6175396;23;20690;-76
2022/12/26 06:28:58;;;;;;;4.87;4.67;;;;;;;;;;6178891;23;20352;-76
2022/12/26 06:31:37;;;;;;;5.53;5.03;;;;;;;;;;6174782;23;20386;-80
2022/12/26 06:34:03;;;;;;;4.53;4.23;;;;;;;;;;6178802;23;20352;-76
2022/12/26 06:36:29;;;;;;;5.10;4.80;;;;;;;;;;6173696;23;20383;-75
2022/12/26 06:38:55;;;;;;;5.20;4.90;;;;;;;;;;6177958;23;20381;-74
2022/12/26 06:41:23;;;;;;;4.97;4.87;;;;;;;;;;6174152;23;20772;-76
2022/12/26 06:43:49;;;;;;;5.77;5.47;;;;;;;;;;6177793;23;20721;-75
2022/12/26 06:46:16;;;;;;;5.50;5.20;;;;;;;;;;6148192;23;20375;-77
2022/12/26 06:48:42;;;;;;;6.47;5.97;;;;;;;;;;6177899;23;20484;-77
2022/12/26 06:51:12;;;;;;;5.13;4.87;;;;;;;;;;6173960;23;20370;-76
2022/12/26 06:53:39;;;;;;;6.13;5.63;;;;;;;;;;6171059;23;20457;-75
2022/12/26 06:56:06;;;;;;;5.50;5.10;;;;;;;;;;6177358;23;20371;-76
2022/12/26 06:58:32;;;;;;;4.90;4.63;;;;;;;;;;6174030;23;20406;-73
2022/12/26 07:04:09;;;;;;;5.23;4.93;;;;;;;;;;6175653;23;20469;-77
2022/12/26 07:06:36;;;;;;;7.37;6.73;;;;;;;;;;6178448;23;20348;-78
2022/12/26 07:09:11;;;;;;;4.97;4.57;;;;;;;;;;6147452;23;20567;-75
2022/12/26 07:11:39;;;;;;;6.20;5.80;;;;;;;;;;6177110;23;20782;-75
2022/12/26 07:14:05;;;;;;;5.60;5.20;;;;;;;;;;6174074;23;20763;-75
2022/12/26 07:16:33;;;;;;;5.33;5.07;;;;;;;;;;6176554;23;21096;-76
2022/12/26 07:18:59;;;;;;;5.73;4.90;;;;;;;;;;6167837;23;20383;-75
2022/12/26 07:21:26;;;;;;;4.60;4.40;;;;;;;;;;6177543;23;20868;-75
2022/12/26 07:23:52;;;;;;;5.60;5.20;;;;;;;;;;6172981;23;20852;-75
2022/12/26 07:26:18;;;;;;;5.87;5.57;;;;;;;;;;6177713;23;20506;-75
2022/12/26 07:28:44;;;;;;;5.00;4.80;;;;;;;;;;6173394;23;20445;-75
2022/12/26 07:31:20;;;;;;;5.57;5.17;;;;;;;;;;6177493;23;20376;-77
2022/12/26 07:33:47;;;;;;;5.63;5.20;;;;;;;;;;6146797;23;20402;-75
2022/12/26 07:36:13;;;;;;;3.90;3.70;;;;;;;;;;6177398;23;20474;-76
2022/12/26 07:38:39;;;;;;;4.97;4.53;;;;;;;;;;6146806;23;20760;-75
2022/12/26 07:43:51;;;;;;;4.70;4.20;;;;;;;;;;6112508;23;20399;-76
2022/12/26 07:46:17;;;;;;;4.17;3.77;;;;;;;;;;6177290;23;20522;-75
2022/12/26 07:48:47;;;;;;;4.00;3.90;;;;;;;;;;6173121;23;20390;-76
2022/12/26 07:51:13;;;;;;;4.83;4.27;;;;;;;;;;6177295;23;20679;-75
2022/12/26 07:53:39;;;;;;;4.33;4.23;;;;;;;;;;6147915;23;20437;-76
2022/12/26 07:56:08;;;;;;;4.30;4.10;;;;;;;;;;6176251;23;20458;-75
2022/12/26 07:58:34;;;;;;;3.67;3.60;;;;;;;;;;6172915;23;20383;-77
2022/12/26 08:01:01;;;;;;;4.20;4.00;;;;;;;;;;6177227;23;20371;-75
2022/12/26 08:03:27;;;;;;;2.97;2.97;;;;;;;;;;6173542;23;20854;-76
2022/12/26 08:05:56;;;;;;;2.20;2.10;;;;;;;;;;6170101;23;20510;-75
2022/12/26 08:08:22;;;;;;;2.77;2.67;;;;;;;;;;6177509;23;20428;-74
2022/12/26 08:10:48;;;;;;;2.10;2.10;;;;;;;;;;6173846;23;20406;-74
2022/12/26 08:13:14;;;;;;;2.70;2.60;;;;;;;;;;6177781;23;20423;-74
2022/12/26 08:15:40;;;;;;;2.30;2.30;;;;;;;;;;6173991;23;20379;-76
2022/12/26 08:18:07;;;;;;;2.30;2.30;;;;;;;;;;6175066;23;20937;-76
2022/12/26 08:20:33;;;;;;;11.53;9.53;;;;;;;;;;6172458;23;20375;-76
2022/12/26 08:22:59;;;;;;;4.33;2.77;;;;;;;;;;6172804;23;20379;-75
2022/12/26 08:25:25;;;;;;;2.20;2.20;;;;;;;;;;6171808;23;20433;-76
2022/12/26 08:27:54;;;;;;;1.63;1.63;;;;;;;;;;6176028;23;20592;-75
2022/12/26 08:30:20;;;;;;;2.30;2.30;;;;;;;;;;6171692;23;20467;-76
2022/12/26 08:32:46;;;;;;;1.90;1.90;;;;;;;;;;6175549;23;20359;-76
2022/12/26 08:35:12;;;;;;;1.90;1.80;;;;;;;;;;6171878;23;20394;-75
2022/12/26 08:37:38;;;;;;;2.00;2.00;;;;;;;;;;6175962;23;20371;-75
2022/12/26 08:40:04;;;;;;;2.30;2.20;;;;;;;;;;6172458;23;20367;-75
2022/12/26 08:42:30;;;;;;;1.60;1.60;;;;;;;;;;6175947;23;20864;-76
2022/12/26 08:44:56;;;;;;;1.60;1.60;;;;;;;;;;6171862;23;20468;-75
2022/12/26 08:47:26;;;;;;;1.97;1.80;;;;;;;;;;6150854;23;20714;-76
2022/12/26 08:49:52;;;;;;;1.00;1.00;;;;;;;;;;6172645;23;20387;-75
2022/12/26 08:52:18;;;;;;;1.10;1.10;;;;;;;;;;6150185;23;20403;-78
2022/12/26 08:54:44;;;;;;;1.30;1.30;;;;;;;;;;6167791;23;20390;-76
2022/12/26 08:57:10;;;;;;;1.00;1.00;;;;;;;;;;6173033;23;20383;-75
2022/12/26 08:59:36;;;;;;;1.37;1.37;;;;;;;;;;6176352;23;20694;-76
2022/12/26 09:02:02;;;;;;;1.60;1.60;;;;;;;;;;6177937;23;20382;-76
2022/12/26 09:04:28;;;;;;;1.20;1.20;;;;;;;;;;6159191;23;20422;-76
2022/12/26 09:06:54;;;;;;;1.20;1.20;;;;;;;;;;6174664;23;20371;-77
2022/12/26 09:09:20;;;;;;;1.70;1.07;;;;;;;;;;6176392;23;20383;-77
2022/12/26 09:11:46;;;;;;;1.47;1.10;;;;;;;;;;6145720;23;20912;-77
2022/12/26 09:14:12;;;;;;;1.30;1.30;;;;;;;;;;6176510;23;20379;-76
2022/12/26 09:16:45;;;;;;;0.70;0.70;;;;;;;;;;6146460;23;20395;-75
2022/12/26 09:19:12;;;;;;;0.90;0.90;;;;;;;;;;6147933;23;20419;-75
2022/12/26 09:21:38;;;;;;;1.40;0.90;;;;;;;;;;6168231;23;20383;-76
2022/12/26 09:24:20;;;;;;;1.90;1.20;;;;;;;;;;6176338;23;20513;-80
2022/12/26 09:26:46;;;;;;;1.27;1.27;;;;;;;;;;6144997;23;20475;-76
2022/12/26 09:29:12;;;;;;;1.00;1.00;;;;;;;;;;6176418;23;20395;-76
2022/12/26 09:31:39;;;;;;;0.80;0.80;;;;;;;;;;6176636;23;20754;-75
2022/12/26 09:34:05;;;;;;;0.87;0.87;;;;;;;;;;6184302;23;20379;-75
2022/12/26 09:36:33;;;;;;;1.00;1.00;;;;;;;;;;6180595;23;20384;-75
2022/12/26 09:38:59;;;;;;;1.47;0.83;;;;;;;;;;6180086;23;20445;-77
2022/12/26 09:41:34;;;;;;;1.00;1.00;;;;;;;;;;6175472;23;20419;-76
2022/12/26 09:44:05;;;;;;;0.67;0.67;;;;;;;;;;6176684;23;20440;-76
2022/12/26 09:46:35;;;;;;;1.90;1.63;;;;;;;;;;6174183;23;20376;-76
2022/12/26 09:49:08;;;;;;;1.17;1.17;;;;;;;;;;6179291;23;20378;-76
2022/12/26 09:51:36;;;;;;;4.10;1.00;;;;;;;;;;6175496;23;20478;-76
2022/12/26 09:54:03;;;;;;;0.87;0.87;;;;;;;;;;6178954;23;20721;-77
2022/12/26 09:56:29;;;;;;;0.87;0.87;;;;;;;;;;6174951;23;20825;-75
2022/12/26 09:58:58;;;;;;;1.07;1.07;;;;;;;;;;6178781;23;20457;-75
2022/12/26 10:01:26;;;;;;;1.17;1.17;;;;;;;;;;6174723;23;20379;-76
2022/12/26 10:03:56;;;;;;;1.00;1.00;;;;;;;;;;6177752;23;20840;-76
2022/12/26 10:06:23;;;;;;;2.43;1.13;;;;;;;;;;6174784;23;20392;-75
2022/12/26 10:08:49;;;;;;;0.73;0.73;;;;;;;;;;6176639;23;20464;-76
2022/12/26 10:11:39;;;;;;;1.23;1.10;;;;;;;;;;6174711;23;20923;-76
2022/12/26 10:14:14;;;;;;;1.10;1.10;;;;;;;;;;6162439;23;20463;-77
2022/12/26 10:16:52;;;;;;;1.00;1.00;;;;;;;;;;6174278;23;20378;-76
2022/12/26 10:19:18;;;;;;;0.67;0.67;;;;;;;;;;6172504;23;20692;-76
2022/12/26 10:21:48;;;;;;;0.80;0.80;;;;;;;;;;6173468;23;20375;-76
2022/12/26 10:24:27;;;;;;;1.60;1.50;;;;;;;;;;6177259;23;20473;-80
2022/12/26 10:27:10;;;;;;;3.70;1.53;;;;;;;;;;6173397;23;20374;-77
2022/12/26 10:29:42;;;;;;;0.83;0.83;;;;;;;;;;6142700;23;20441;-75
2022/12/26 10:32:08;;;;;;;1.00;1.00;;;;;;;;;;6176608;23;20742;-76
2022/12/26 10:34:36;;;;;;;0.80;0.80;;;;;;;;;;6163879;23;20383;-75
2022/12/26 10:37:02;;;;;;;1.40;1.30;;;;;;;;;;6173317;23;20368;-76
2022/12/26 10:39:34;;;;;;;1.27;1.00;;;;;;;;;;6177615;23;20639;-77
2022/12/26 10:42:11;;;;;;;2.00;0.87;;;;;;;;;;6173720;23;20375;-78
2022/12/26 10:44:38;;;;;;;0.83;0.83;;;;;;;;;;6177833;23;20433;-75
2022/12/26 10:47:12;;;;;;;1.30;1.30;;;;;;;;;;6174067;23;20427;-75
2022/12/26 10:49:38;;;;;;;1.10;1.10;;;;;;;;;;6177607;23;20364;-75
2022/12/26 10:52:04;;;;;;;1.63;1.57;;;;;;;;;;6173381;23;20390;-77
2022/12/26 10:54:30;;;;;;;1.47;1.40;;;;;;;;;;6177429;23;20383;-78
2022/12/26 10:56:58;;;;;;;0.70;0.70;;;;;;;;;;6173364;23;20390;-76
2022/12/26 10:59:37;;;;;;;2.40;1.07;;;;;;;;;;6177203;23;20398;-75
2022/12/26 11:02:29;;;;;;;1.43;1.30;;;;;;;;;;6173512;23;20379;-74
2022/12/26 11:05:08;;;;;;;1.27;0.80;;;;;;;;;;6170842;23;20419;-76
2022/12/26 11:07:54;;;;;;;1.00;1.00;;;;;;;;;;6177316;23;20525;-75
2022/12/26 11:10:21;;;;;;;1.23;0.80;;;;;;;;;;6172789;23;20406;-74
2022/12/26 11:12:49;;;;;;;1.40;0.97;;;;;;;;;;6177366;23;20427;-75
2022/12/26 11:15:52;;;;;;;1.03;1.03;;;;;;;;;;6173230;23;20375;-77
2022/12/26 11:18:36;;;;;;;1.30;1.30;;;;;;;;;;6090782;23;20394;-79
2022/12/26 11:21:17;;;;;;;0.90;0.90;;;;;;;;;;6169647;23;20383;-75
2022/12/26 11:23:44;;;;;;;1.00;1.00;;;;;;;;;;6175323;23;20385;-76
2022/12/26 11:26:24;;;;;;;3.03;0.53;;;;;;;;;;6172689;23;20430;-74
2022/12/26 11:29:09;;;;;;;1.70;1.00;;;;;;;;;;6149116;23;20401;-74
2022/12/26 11:31:35;;;;;;;1.37;1.27;;;;;;;;;;6145536;23;20806;-76
2022/12/26 11:34:06;;;;;;;0.50;0.50;;;;;;;;;;6175611;23;20439;-74
2022/12/26 11:36:33;;;;;;;2.57;1.00;;;;;;;;;;6172717;23;20474;-74
2022/12/26 11:39:03;;;;;;;0.80;0.80;;;;;;;;;;6176138;23;20375;-76
2022/12/26 11:41:32;;;;;;;1.40;0.80;;;;;;;;;;6172610;23;20367;-74
2022/12/26 11:44:12;;;;;;;1.20;1.20;;;;;;;;;;6171525;23;20733;-75
2022/12/26 11:46:41;;;;;;;1.57;1.10;;;;;;;;;;6171745;23;20390;-76
2022/12/26 11:49:18;;;;;;;2.17;1.97;;;;;;;;;;6176164;23;20750;-76
2022/12/26 11:51:45;;;;;;;1.47;0.83;;;;;;;;;;6145828;23;20809;-75
2022/12/26 11:54:17;;;;;;;1.20;1.10;;;;;;;;;;6176109;23;20391;-75
2022/12/26 11:56:43;;;;;;;0.80;0.80;;;;;;;;;;6172407;23;20721;-75
2022/12/26 11:59:35;;;;;;;6.10;1.33;;;;;;;;;;6176460;23;20447;-76
2022/12/26 12:02:18;;;;;;;2.63;1.10;;;;;;;;;;6166385;23;20728;-75
2022/12/26 12:04:45;;;;;;;3.17;1.27;;;;;;;;;;6172377;23;20749;-75
2022/12/26 12:07:22;;;;;;;2.00;0.60;;;;;;;;;;6176327;23;20380;-75
2022/12/26 12:10:01;;;;;;;0.90;0.90;;;;;;;;;;6172166;23;20387;-75
2022/12/26 12:12:27;;;;;;;1.37;0.90;;;;;;;;;;6176107;23;20785;-76
2022/12/26 12:14:56;;;;;;;3.23;1.30;;;;;;;;;;6171719;23;20867;-75
2022/12/26 12:17:40;;;;;;;1.00;1.00;;;;;;;;;;6176760;23;20360;-75
2022/12/26 12:20:15;;;;;;;0.80;0.77;;;;;;;;;;6164063;23;20435;-74
2022/12/26 12:22:58;;;;;;;3.30;1.00;;;;;;;;;;6176136;23;20370;-75
2022/12/26 12:25:24;;;;;;;1.90;0.70;;;;;;;;;;6171940;23;20423;-75
2022/12/26 12:27:49;;;;;;;1.10;1.10;;;;;;;;;;6176115;23;20387;-75
2022/12/26 12:30:36;;;;;;;1.17;1.17;;;;;;;;;;6171676;23;20864;-75
2022/12/26 12:33:22;;;;;;;1.70;0.80;;;;;;;;;;6154914;23;20423;-74
2022/12/26 12:35:48;;;;;;;0.97;0.90;;;;;;;;;;6171796;23;20466;-74
2022/12/26 12:38:17;;;;;;;2.30;1.00;;;;;;;;;;6175839;23;20386;-74
2022/12/26 12:40:43;;;;;;;1.63;0.90;;;;;;;;;;6172309;23;20672;-75
2022/12/26 12:43:09;;;;;;;3.27;2.73;;;;;;;;;;6175625;23;20371;-76
2022/12/26 12:45:41;;;;;;;1.20;1.07;;;;;;;;;;6171310;23;20415;-75
2022/12/26 12:48:07;;;;;;;1.03;1.03;;;;;;;;;;6175800;23;20526;-76
2022/12/26 12:50:39;;;;;;;1.60;1.50;;;;;;;;;;6173194;23;20374;-74
2022/12/26 12:53:17;;;;;;;1.23;1.20;;;;;;;;;;6176151;23;20362;-74
2022/12/26 12:55:55;;;;;;;1.17;1.13;;;;;;;;;;6172721;23;20624;-75
2022/12/26 12:58:22;;;;;;;1.60;1.50;;;;;;;;;;6178696;23;20895;-75
2022/12/26 13:00:56;;;;;;;0.80;0.80;;;;;;;;;;6176143;23;20658;-75
2022/12/26 13:03:26;;;;;;;0.80;0.80;;;;;;;;;;6176982;23;21067;-75
2022/12/26 13:05:52;;;;;;;0.90;0.73;;;;;;;;;;6173630;23;20453;-75
2022/12/26 13:08:39;;;;;;;0.80;0.80;;;;;;;;;;6177510;23;20390;-75
2022/12/26 13:11:30;;;;;;;4.33;1.20;;;;;;;;;;6173746;23;20399;-75
2022/12/26 13:14:04;;;;;;;1.60;1.00;;;;;;;;;;6150298;23;20438;-74
2022/12/26 13:16:42;;;;;;;2.20;1.30;;;;;;;;;;6172028;23;20387;-75
2022/12/26 13:19:11;;;;;;;0.90;0.53;;;;;;;;;;6168589;23;20376;-74
2022/12/26 13:21:39;;;;;;;1.67;1.40;;;;;;;;;;6174952;23;20367;-77
2022/12/26 13:24:24;;;;;;;3.53;0.90;;;;;;;;;;6171398;23;20374;-75
2022/12/26 13:27:02;;;;;;;0.80;0.70;;;;;;;;;;6175575;23;20420;-77
2022/12/26 13:29:35;;;;;;;1.40;1.30;;;;;;;;;;6171954;23;20466;-75
2022/12/26 13:32:03;;;;;;;1.20;1.13;;;;;;;;;;6148627;23;20387;-75
2022/12/26 13:34:29;;;;;;;1.03;1.03;;;;;;;;;;6171048;23;20415;-73
2022/12/26 13:36:56;;;;;;;1.80;0.80;;;;;;;;;;6174734;23;20380;-75
2022/12/26 13:39:25;;;;;;;2.53;1.40;;;;;;;;;;6171676;23;20470;-74
2022/12/26 13:44:36;;;;;;;5.13;1.40;;;;;;;;;;6171437;23;20430;-76
2022/12/26 13:47:03;;;;;;;1.20;1.03;;;;;;;;;;6175365;23;20399;-75
2022/12/26 13:49:34;;;;;;;1.77;0.80;;;;;;;;;;6172253;23;20391;-74
2022/12/26 13:52:10;;;;;;;1.60;1.60;;;;;;;;;;6175382;23;20360;-75
2022/12/26 13:54:37;;;;;;;1.40;1.40;;;;;;;;;;6170900;23;20869;-75
2022/12/26 13:57:26;;;;;;;1.57;1.47;;;;;;;;;;6171607;23;20375;-76
2022/12/26 14:00:04;;;;;;;1.70;1.60;;;;;;;;;;6133730;23;20383;-75
2022/12/26 14:02:30;;;;;;;1.33;1.17;;;;;;;;;;6175452;23;20358;-75
2022/12/26 14:05:13;;;;;;;1.27;1.27;;;;;;;;;;6170269;23;20419;-75
2022/12/26 14:07:45;;;;;;;1.73;1.67;;;;;;;;;;6174942;23;20387;-75
2022/12/26 14:10:11;;;;;;;2.00;1.90;;;;;;;;;;6172133;23;21536;-75
2022/12/26 14:13:10;;;;;;;1.20;1.20;;;;;;;;;;6174765;23;20805;-76
2022/12/26 14:15:40;;;;;;;2.63;1.80;;;;;;;;;;6104741;23;20533;-75
2022/12/26 14:18:06;;;;;;;2.00;1.73;;;;;;;;;;6175354;23;20491;-74
2022/12/26 14:20:42;;;;;;;2.00;1.80;;;;;;;;;;6165409;23;20666;-75
2022/12/26 14:23:19;;;;;;;3.23;3.03;;;;;;;;;;6174552;23;20442;-74
2022/12/26 14:25:48;;;;;;;5.70;5.30;;;;;;;;;;6170341;23;20429;-75
2022/12/26 14:28:17;;;;;;;7.57;5.00;;;;;;;;;;6174792;23;20394;-76
2022/12/26 14:31:02;;;;;;;5.63;5.13;;;;;;;;;;6145005;23;20395;-74
2022/12/26 14:33:37;;;;;;;5.47;4.97;;;;;;;;;;6176032;23;20437;-76
2022/12/26 14:36:06;;;;;;;8.87;4.73;;;;;;;;;;6174508;23;20871;-76
2022/12/26 14:38:32;;;;;;;4.97;4.53;;;;;;;;;;6177096;23;20455;-74
2022/12/26 14:40:58;;;;;;;5.20;4.20;;;;;;;;;;6173807;23;20412;-75
2022/12/26 14:43:34;;;;;;;5.07;3.43;;;;;;;;;;6176159;23;20375;-75
2022/12/26 14:46:00;;;;;;;5.43;4.67;;;;;;;;;;6172486;23;20970;-77
2022/12/26 14:48:27;;;;;;;4.93;4.33;;;;;;;;;;6176716;23;20379;-73
2022/12/26 14:51:13;;;;;;;6.10;3.57;;;;;;;;;;6173261;23;20390;-77
2022/12/26 14:53:39;;;;;;;4.70;3.87;;;;;;;;;;6176245;23;20379;-76
2022/12/26 14:56:14;;;;;;;7.93;3.77;;;;;;;;;;6142085;23;21002;-76
2022/12/26 14:58:46;;;;;;;9.43;3.47;;;;;;;;;;6176510;23;20684;-76
2022/12/26 15:01:12;;;;;;;10.83;4.40;;;;;;;;;;6168125;23;20384;-75
2022/12/26 15:03:57;;;;;;;5.30;4.10;;;;;;;;;;6149634;23;21308;-75
2022/12/26 15:06:41;;;;;;;5.40;3.67;;;;;;;;;;6170865;23;20939;-74
2022/12/26 15:09:12;;;;;;;5.73;4.07;;;;;;;;;;6176842;23;20391;-76
2022/12/26 15:11:44;;;;;;;5.03;3.87;;;;;;;;;;6173809;23;20429;-73
2022/12/26 15:14:28;;;;;;;5.27;3.37;;;;;;;;;;6175122;23;20389;-74
2022/12/26 15:16:57;;;;;;;5.80;3.43;;;;;;;;;;6173240;23;20670;-75
2022/12/26 15:19:50;;;;;;;4.10;3.70;;;;;;;;;;6172378;23;20373;-75
2022/12/26 15:22:16;;;;;;;7.03;3.83;;;;;;;;;;6177467;23;20769;-74
2022/12/26 15:24:54;;;;;;;3.97;3.67;;;;;;;;;;6176297;23;20430;-74
2022/12/26 15:27:44;;;;;;;4.97;3.03;;;;;;;;;;6176971;23;20343;-76
2022/12/26 15:30:14;;;;;;;6.70;3.80;;;;;;;;;;6172457;23;20403;-75
2022/12/26 15:32:45;;;;;;;10.67;4.00;;;;;;;;;;6175710;23;20346;-79
2022/12/26 15:35:14;;;;;;;5.73;4.10;;;;;;;;;;6172179;23;20758;-78
2022/12/26 15:37:58;;;;;;;5.47;4.13;;;;;;;;;;6166806;23;20360;-77
2022/12/26 15:40:24;;;;;;;8.23;3.93;;;;;;;;;;6175422;23;20355;-75
2022/12/26 15:43:09;;;;;;;10.07;4.63;;;;;;;;;;6171088;23;20769;-74
2022/12/26 15:45:43;;;;;;;9.07;3.87;;;;;;;;;;6143821;23;20541;-74
2022/12/26 15:48:28;;;;;;;3.90;3.60;;;;;;;;;;6176123;23;20344;-74
2022/12/26 15:50:59;;;;;;;5.67;4.13;;;;;;;;;;6171283;23;20787;-73
2022/12/26 15:53:36;;;;;;;6.93;3.47;;;;;;;;;;6176289;23;20390;-73
2022/12/26 15:56:17;;;;;;;5.93;3.60;;;;;;;;;;6169908;23;20152;-74
2022/12/26 15:58:43;;;;;;;4.70;3.20;;;;;;;;;;6175943;23;20430;-75
2022/12/26 16:01:10;;;;;;;9.37;4.40;;;;;;;;;;6172110;23;20379;-75
2022/12/26 16:03:55;;;;;;;4.00;3.70;;;;;;;;;;6176067;23;20375;-75
2022/12/26 16:06:39;;;;;;;5.33;3.77;;;;;;;;;;6171160;23;20415;-74
2022/12/26 16:09:11;;;;;;;6.37;3.83;;;;;;;;;;6175416;23;20903;-76
2022/12/26 16:11:46;;;;;;;5.00;4.13;;;;;;;;;;6172145;23;20395;-74
2022/12/26 16:14:28;;;;;;;3.00;2.90;;;;;;;;;;6176298;23;20379;-75
2022/12/26 16:16:54;;;;;;;5.00;4.67;;;;;;;;;;6172710;23;20843;-76
2022/12/26 16:19:21;;;;;;;5.33;2.97;;;;;;;;;;6171519;23;20845;-76
2022/12/26 16:24:37;;;;;;;2.37;2.20;;;;;;;;;;6171439;23;20432;-75
2022/12/26 16:27:04;;;;;;;5.53;3.10;;;;;;;;;;6176003;23;20382;-76
2022/12/26 16:29:30;;;;;;;2.93;2.37;;;;;;;;;;6172709;23;20406;-77
2022/12/26 16:32:04;;;;;;;2.83;2.60;;;;;;;;;;6148426;23;20411;-74
2022/12/26 16:34:33;;;;;;;1.53;1.40;;;;;;;;;;6172308;23;20374;-74
2022/12/26 16:36:59;;;;;;;4.30;3.10;;;;;;;;;;6174009;23;20853;-74
2022/12/26 16:39:25;;;;;;;3.30;1.80;;;;;;;;;;6175358;23;20403;-74
2022/12/26 16:41:59;;;;;;;1.27;1.27;;;;;;;;;;6178376;23;20429;-74
2022/12/26 16:44:30;;;;;;;1.47;1.27;;;;;;;;;;6176886;23;20411;-75
2022/12/26 16:46:59;;;;;;;3.20;1.50;;;;;;;;;;6153661;23;20395;-75
2022/12/26 16:49:26;;;;;;;1.90;1.30;;;;;;;;;;6175412;23;20371;-73
2022/12/26 16:51:53;;;;;;;6.53;1.50;;;;;;;;;;6146658;23;20391;-74
2022/12/26 16:54:22;;;;;;;1.43;1.43;;;;;;;;;;6174547;23;20395;-74
2022/12/26 16:56:50;;;;;;;1.93;1.80;;;;;;;;;;6174747;23;20461;-75
2022/12/26 16:59:18;;;;;;;1.53;1.30;;;;;;;;;;6174186;23;20499;-74
2022/12/26 17:01:59;;;;;;;1.47;1.47;;;;;;;;;;6147428;23;20388;-75
2022/12/26 17:04:26;;;;;;;1.70;1.60;;;;;;;;;;6172688;23;20415;-76
2022/12/26 17:07:00;;;;;;;1.40;1.40;;;;;;;;;;6173370;23;20844;-75
2022/12/26 17:09:27;;;;;;;1.43;1.43;;;;;;;;;;6174124;23;20902;-75
2022/12/26 17:11:58;;;;;;;1.47;1.47;;;;;;;;;;6174221;23;20849;-74
2022/12/26 17:14:34;;;;;;;2.83;1.83;;;;;;;;;;6174377;23;20383;-74
2022/12/26 17:17:02;;;;;;;2.83;2.13;;;;;;;;;;6174795;23;20459;-74
2022/12/26 17:19:30;;;;;;;1.67;1.57;;;;;;;;;;6165084;23;20367;-76
2022/12/26 17:22:17;;;;;;;4.53;1.97;;;;;;;;;;6146356;23;20379;-77